Time;durP1;ratioP1;P1;durP2;ratioP2;P2;SDS_P1;SDS_P2;PMS_P1;PMS_P2;Temp;Humidity;BMP_temperature;BMP_pressure;BME280_temperature;BME280_humidity;BME280_pressure;Samples;Min_cycle;Max_cycle;Signal;HPM_P1;HPM_P2
2021/09/28 00:00:57;;;;;;;29.20;21.17;;;;;;;22.30;52.97;95875.59;4971079;28;20043;-69
2021/09/28 00:03:23;;;;;;;36.45;25.08;;;;;;;22.26;52.94;95868.56;4969633;28;20031;-68
2021/09/28 00:05:48;;;;;;;29.05;20.33;;;;;;;22.25;52.89;95865.06;4970798;28;20035;-68
2021/09/28 00:08:15;;;;;;;30.58;21.33;;;;;;;22.38;52.67;95884.66;4972791;28;20461;-69
2021/09/28 00:10:40;;;;;;;32.20;22.73;;;;;;;22.41;52.60;95883.13;4970593;28;20039;-68
2021/09/28 00:13:07;;;;;;;35.13;21.85;;;;;;;22.45;52.54;95875.84;4970853;28;20069;-68
2021/09/28 00:15:33;;;;;;;41.95;25.73;;;;;;;22.26;52.56;95866.63;4971061;28;20054;-68
2021/09/28 00:18:00;;;;;;;23.88;19.33;;;;;;;22.26;52.84;95882.88;4985879;28;20497;-68
2021/09/28 00:20:26;;;;;;;41.25;23.35;;;;;;;22.23;52.70;95880.13;4969949;28;20069;-68
2021/09/28 00:22:54;;;;;;;28.88;20.80;;;;;;;22.24;52.85;95887.13;4972431;28;20018;-68
2021/09/28 00:25:21;;;;;;;43.63;26.77;;;;;;;22.20;52.77;95878.91;4970840;28;20035;-69
2021/09/28 00:27:47;;;;;;;26.67;21.40;;;;;;;22.16;52.93;95886.22;4970990;28;20073;-68
2021/09/28 00:30:12;;;;;;;33.97;22.67;;;;;;;22.08;52.98;95879.06;4970288;28;20074;-68
2021/09/28 00:32:38;;;;;;;40.30;24.17;;;;;;;22.10;52.72;95887.59;4970635;28;20067;-68
2021/09/28 00:35:04;;;;;;;39.78;24.77;;;;;;;22.03;52.99;95874.72;4971127;28;20034;-69
2021/09/28 00:37:30;;;;;;;39.90;24.27;;;;;;;22.01;53.13;95881.66;4970596;28;20063;-68
2021/09/28 00:39:56;;;;;;;42.13;25.33;;;;;;;22.01;53.04;95892.50;4970517;28;20445;-69
2021/09/28 00:42:22;;;;;;;32.72;22.88;;;;;;;21.88;53.18;95874.81;4970805;28;20039;-68
2021/09/28 00:44:47;;;;;;;29.92;21.77;;;;;;;21.91;53.31;95874.91;4971210;28;20045;-69
2021/09/28 00:47:15;;;;;;;41.33;25.23;;;;;;;21.86;53.80;95871.69;4988527;28;20057;-68
2021/09/28 00:49:42;;;;;;;52.78;28.13;;;;;;;21.94;53.64;95881.50;4971231;28;20480;-69
2021/09/28 00:52:09;;;;;;;43.33;26.15;;;;;;;21.95;53.73;95875.72;4969706;28;20030;-69
2021/09/28 00:54:37;;;;;;;32.80;22.38;;;;;;;22.05;53.47;95882.47;4970084;28;20129;-68
2021/09/28 00:57:06;;;;;;;37.88;23.55;;;;;;;22.28;53.11;95899.59;4968743;28;20452;-69
2021/09/28 00:59:35;;;;;;;45.95;26.95;;;;;;;22.24;53.34;95876.28;4984745;28;20270;-68
2021/09/28 01:02:01;;;;;;;24.58;21.02;;;;;;;22.39;53.05;95886.22;4972256;28;20019;-68
2021/09/28 01:04:27;;;;;;;23.60;20.08;;;;;;;22.43;53.00;95887.06;4969970;28;20094;-69
2021/09/28 01:06:53;;;;;;;29.48;21.67;;;;;;;22.48;52.95;95885.97;4969498;28;20031;-68
2021/09/28 01:09:18;;;;;;;35.33;23.17;;;;;;;22.64;52.83;95886.63;4969418;28;20401;-68
2021/09/28 01:11:43;;;;;;;32.20;21.73;;;;;;;22.67;52.70;95885.09;4969997;28;20034;-68
2021/09/28 01:14:09;;;;;;;33.47;21.85;;;;;;;22.75;52.69;95887.56;4970480;28;20046;-69
2021/09/28 01:16:34;;;;;;;29.33;22.33;;;;;;;22.75;52.63;95882.16;4968930;28;20043;-68
2021/09/28 01:19:00;;;;;;;20.08;18.02;;;;;;;22.88;52.64;95890.06;4969327;28;20138;-67
2021/09/28 01:21:26;;;;;;;21.27;17.83;;;;;;;22.86;52.28;95878.81;4968804;28;20042;-69
2021/09/28 01:23:51;;;;;;;18.05;16.35;;;;;;;22.99;52.46;95886.41;4968201;28;20089;-68
2021/09/28 01:26:23;;;;;;;20.35;16.40;;;;;;;23.02;52.06;95885.66;4969684;28;20030;-69
2021/09/28 01:28:49;;;;;;;19.88;18.02;;;;;;;23.12;52.25;95888.91;4970054;28;20127;-68
2021/09/28 01:31:15;;;;;;;20.58;18.48;;;;;;;23.18;51.79;95890.16;4969711;28;20045;-69
2021/09/28 01:33:41;;;;;;;18.75;15.63;;;;;;;23.25;51.33;95892.97;4969398;28;20404;-69
2021/09/28 01:36:07;;;;;;;17.83;15.93;;;;;;;23.23;51.73;95896.03;4990746;23;20051;-72
2021/09/28 01:38:32;;;;;;;17.77;15.73;;;;;;;23.23;51.32;95881.69;4949844;28;20405;-72
2021/09/28 01:40:58;;;;;;;15.93;14.43;;;;;;;23.29;51.26;95881.03;4950726;29;20430;-72
2021/09/28 01:43:24;;;;;;;15.98;14.35;;;;;;;23.33;51.43;95881.06;4932950;28;20081;-72
2021/09/28 01:45:55;;;;;;;18.67;16.77;;;;;;;23.40;51.24;95892.03;4943719;28;20688;-72
2021/09/28 01:48:21;;;;;;;15.95;14.13;;;;;;;23.41;51.40;95884.66;4950283;28;20122;-72
2021/09/28 01:50:46;;;;;;;16.13;14.50;;;;;;;23.41;51.24;95881.94;4948284;28;20131;-72
2021/09/28 01:53:12;;;;;;;15.82;14.40;;;;;;;23.38;50.72;95874.53;4966664;28;20547;-72
2021/09/28 01:55:37;;;;;;;16.58;14.98;;;;;;;23.44;50.85;95881.19;4955945;28;20070;-72
2021/09/28 01:58:02;;;;;;;16.50;14.82;;;;;;;23.47;50.89;95885.88;4950611;28;20059;-71
2021/09/28 02:00:28;;;;;;;17.35;15.63;;;;;;;23.38;50.87;95885.38;4948793;28;20454;-72
2021/09/28 02:02:54;;;;;;;19.15;17.15;;;;;;;23.31;50.71;95877.94;4950546;28;20028;-71
2021/09/28 02:05:20;;;;;;;22.05;18.20;;;;;;;23.23;51.14;95884.41;4949873;28;20031;-71
2021/09/28 02:07:45;;;;;;;21.90;16.05;;;;;;;23.21;51.30;95889.44;4956852;28;20377;-72
2021/09/28 02:10:11;;;;;;;18.52;16.63;;;;;;;23.07;51.38;95887.28;4951999;28;20040;-72
2021/09/28 02:12:38;;;;;;;20.15;17.77;;;;;;;22.95;51.29;95890.22;4949557;28;20043;-71
2021/09/28 02:15:04;;;;;;;19.77;16.77;;;;;;;22.87;51.54;95883.09;4948993;28;20118;-71
2021/09/28 02:17:29;;;;;;;19.10;16.15;;;;;;;22.77;51.86;95874.41;4949624;28;20114;-71
2021/09/28 02:19:55;;;;;;;16.40;14.65;;;;;;;22.70;52.07;95877.03;4951492;28;20031;-71
2021/09/28 02:22:20;;;;;;;20.17;16.50;;;;;;;22.72;52.17;95874.72;4958101;28;20090;-71
2021/09/28 02:24:45;;;;;;;20.25;16.52;;;;;;;22.73;52.06;95884.44;4955246;28;20389;-72
2021/09/28 02:27:11;;;;;;;25.27;18.25;;;;;;;22.81;52.33;95888.81;4949977;28;20035;-71
2021/09/28 02:29:36;;;;;;;22.05;18.13;;;;;;;22.83;52.13;95878.41;4948170;28;20054;-71
2021/09/28 02:32:02;;;;;;;16.25;14.48;;;;;;;22.91;51.89;95892.09;4951740;28;20106;-71
2021/09/28 02:34:27;;;;;;;16.63;15.05;;;;;;;22.88;51.81;95873.78;4949447;28;20497;-71
2021/09/28 02:36:52;;;;;;;15.70;14.20;;;;;;;22.90;51.57;95868.84;4953516;28;20039;-71
2021/09/28 02:39:18;;;;;;;17.08;15.32;;;;;;;22.90;51.39;95877.75;4957005;28;20124;-71
2021/09/28 02:41:44;;;;;;;18.77;16.55;;;;;;;22.90;51.67;95879.69;4949373;28;20493;-71
2021/09/28 02:44:10;;;;;;;17.88;15.98;;;;;;;22.86;51.73;95873.38;4951483;28;20028;-71
2021/09/28 02:46:36;;;;;;;17.15;15.15;;;;;;;22.81;51.69;95872.53;4948744;28;20040;-72
2021/09/28 02:49:03;;;;;;;17.55;15.75;;;;;;;22.89;51.63;95881.63;4948045;28;20032;-72
2021/09/28 02:51:29;;;;;;;15.55;14.02;;;;;;;22.95;51.80;95884.78;4949125;28;20044;-71
2021/09/28 02:53:54;;;;;;;15.35;13.85;;;;;;;23.01;51.48;95888.75;4956700;28;20054;-71
2021/09/28 02:56:20;;;;;;;16.73;14.77;;;;;;;22.95;51.37;95879.38;4950195;28;20038;-71
2021/09/28 02:58:45;;;;;;;14.68;13.32;;;;;;;22.99;51.20;95889.13;4950870;28;20533;-71
2021/09/28 03:01:10;;;;;;;15.32;13.93;;;;;;;22.89;51.19;95880.84;4949548;28;20034;-71
2021/09/28 03:03:36;;;;;;;14.68;13.23;;;;;;;22.77;51.55;95885.25;4949129;28;20498;-70
2021/09/28 03:06:01;;;;;;;14.32;12.93;;;;;;;22.67;51.65;95885.09;4967277;28;20049;-71
2021/09/28 03:08:27;;;;;;;14.98;13.65;;;;;;;22.69;51.38;95875.47;4960575;28;20027;-71
2021/09/28 03:10:52;;;;;;;14.20;12.68;;;;;;;22.82;51.40;95893.09;4954687;28;20106;-71
2021/09/28 03:13:17;;;;;;;13.23;12.00;;;;;;;22.82;51.54;95890.38;4951702;28;20214;-71
2021/09/28 03:15:43;;;;;;;12.43;11.07;;;;;;;22.87;51.16;95883.88;4951568;28;20066;-71
2021/09/28 03:18:08;;;;;;;12.38;11.02;;;;;;;22.84;50.90;95868.34;4951505;28;20043;-71
2021/09/28 03:20:35;;;;;;;12.45;11.45;;;;;;;22.80;51.09;95889.97;4952569;28;20059;-71
2021/09/28 03:23:00;;;;;;;11.57;10.57;;;;;;;22.70;51.19;95889.81;4962098;28;20251;-71
2021/09/28 03:25:26;;;;;;;11.80;10.70;;;;;;;22.79;51.24;95885.69;4960557;28;20537;-71
2021/09/28 03:27:52;;;;;;;12.68;11.40;;;;;;;22.91;50.68;95892.09;4952712;28;20039;-71
2021/09/28 03:30:17;;;;;;;10.90;10.00;;;;;;;23.13;50.80;95895.91;4952160;28;20031;-71
2021/09/28 03:32:43;;;;;;;10.57;9.68;;;;;;;23.18;50.09;95892.88;4949767;28;20043;-71
2021/09/28 03:35:10;;;;;;;11.95;9.75;;;;;;;23.07;49.70;95892.72;4953200;29;20034;-71
2021/09/28 03:37:42;;;;;;;11.15;9.88;;;;;;;22.71;50.64;95900.28;4959830;28;20095;-71
2021/09/28 03:40:10;;;;;;;10.18;9.27;;;;;;;21.96;52.47;95915.22;4951832;28;20042;-72
2021/09/28 03:42:35;;;;;;;10.63;9.73;;;;;;;22.11;52.11;95913.59;4952158;28;20120;-72
2021/09/28 03:45:01;;;;;;;11.50;10.30;;;;;;;21.82;52.76;95919.59;4950931;28;20059;-71
2021/09/28 03:47:26;;;;;;;11.43;10.45;;;;;;;21.69;53.25;95917.00;4951964;28;20098;-71
2021/09/28 03:49:52;;;;;;;9.95;9.15;;;;;;;21.51;53.70;95918.56;4953617;28;20082;-73
2021/09/28 03:52:18;;;;;;;11.50;10.32;;;;;;;21.45;54.19;95920.00;4959505;28;20038;-72
2021/09/28 03:54:44;;;;;;;12.02;10.93;;;;;;;21.38;54.46;95920.63;4958264;28;20070;-71
2021/09/28 03:57:10;;;;;;;12.27;11.30;;;;;;;21.34;54.39;95927.09;4952206;28;20031;-72
2021/09/28 03:59:35;;;;;;;11.50;10.60;;;;;;;20.45;56.88;95923.03;4951796;28;20046;-73
2021/09/28 04:02:00;;;;;;;14.50;11.63;;;;;;;20.60;56.66;95927.69;4953938;28;20023;-71
2021/09/28 04:04:26;;;;;;;13.18;11.88;;;;;;;20.33;57.45;95931.22;4951915;28;20472;-71
2021/09/28 04:06:51;;;;;;;15.57;13.98;;;;;;;20.12;58.42;95937.66;4953341;28;20050;-73
2021/09/28 04:09:16;;;;;;;15.02;13.50;;;;;;;20.08;58.83;95957.59;4965804;28;20446;-71
2021/09/28 04:11:42;;;;;;;16.42;14.15;;;;;;;20.50;58.13;95949.84;4950491;28;20070;-70
2021/09/28 04:14:09;;;;;;;19.42;14.80;;;;;;;20.24;58.87;95951.06;4952247;28;20023;-71
2021/09/28 04:16:36;;;;;;;16.30;14.52;;;;;;;21.06;56.58;95948.84;4950992;28;20036;-71
2021/09/28 04:19:02;;;;;;;16.35;14.65;;;;;;;20.12;58.56;95953.84;4937471;28;20148;-72
2021/09/28 04:21:27;;;;;;;15.68;14.18;;;;;;;20.10;59.28;95955.31;4944510;28;20065;-72
2021/09/28 04:23:53;;;;;;;19.42;15.52;;;;;;;18.84;62.22;95906.94;4962551;28;20047;-72
2021/09/28 04:26:18;;;;;;;18.45;15.60;;;;;;;20.00;60.31;95954.66;4951860;28;20057;-72
2021/09/28 04:28:44;;;;;;;17.13;15.43;;;;;;;18.82;63.45;95971.94;4953039;28;20869;-72
2021/09/28 04:31:12;;;;;;;18.27;16.58;;;;;;;19.82;60.44;95968.81;4950329;28;20035;-71
2021/09/28 04:33:37;;;;;;;19.10;17.02;;;;;;;20.28;59.38;95961.19;4951566;28;20043;-71
2021/09/28 04:36:03;;;;;;;19.65;14.82;;;;;;;18.91;62.66;95959.16;4951301;28;20129;-72
2021/09/28 04:38:29;;;;;;;18.40;16.25;;;;;;;18.78;63.64;95972.94;4958060;28;20022;-72
2021/09/28 04:40:54;;;;;;;17.08;15.38;;;;;;;20.07;60.35;95970.31;4967833;28;20023;-70
2021/09/28 04:43:20;;;;;;;18.08;15.90;;;;;;;19.25;62.27;95964.44;4951047;28;20122;-70
2021/09/28 04:45:45;;;;;;;17.52;15.70;;;;;;;20.45;58.73;95977.88;4950110;28;20050;-70
2021/09/28 04:48:10;;;;;;;17.92;16.00;;;;;;;19.39;61.54;95976.41;4943910;28;20131;-71
2021/09/28 04:50:36;;;;;;;17.77;15.98;;;;;;;19.37;61.68;95983.28;4934555;28;20051;-74
2021/09/28 04:53:01;;;;;;;17.98;14.95;;;;;;;19.00;62.89;95974.44;4960542;28;20027;-72
2021/09/28 04:55:27;;;;;;;16.25;14.55;;;;;;;18.72;63.94;95980.47;4959519;28;20047;-70
2021/09/28 04:57:52;;;;;;;17.80;16.10;;;;;;;19.12;62.61;95991.38;4951608;28;20480;-70
2021/09/28 05:00:18;;;;;;;17.95;15.88;;;;;;;19.50;61.44;95971.34;4942242;28;20098;-73
2021/09/28 05:02:44;;;;;;;16.17;14.55;;;;;;;19.36;61.79;95974.41;4931651;28;20035;-73
2021/09/28 05:05:09;;;;;;;15.43;13.73;;;;;;;18.82;63.50;96011.59;4935476;29;20407;-75
2021/09/28 05:07:35;;;;;;;15.82;14.32;;;;;;;19.36;62.44;95992.50;4933788;28;20078;-70
2021/09/28 05:10:00;;;;;;;15.50;13.23;;;;;;;19.29;62.19;95997.66;4949044;28;20046;-68
2021/09/28 05:12:25;;;;;;;15.00;13.38;;;;;;;19.42;61.54;95991.16;4950863;28;20063;-72
2021/09/28 05:14:51;;;;;;;14.25;12.98;;;;;;;19.85;60.63;95993.19;4946864;28;20087;-72
2021/09/28 05:17:17;;;;;;;14.15;12.73;;;;;;;18.99;62.55;95968.25;4933642;29;20031;-71
2021/09/28 05:19:42;;;;;;;13.48;12.25;;;;;;;20.22;59.40;95985.75;4930160;29;20040;-81
2021/09/28 05:22:07;;;;;;;13.40;12.00;;;;;;;20.35;58.50;95977.59;4919400;28;20096;-81
2021/09/28 05:24:33;;;;;;;12.52;11.40;;;;;;;19.00;62.37;95991.41;4928003;28;20031;-81
2021/09/28 05:27:05;;;;;;;13.77;12.25;;;;;;;18.63;64.16;96004.81;4952897;28;20042;-80
2021/09/28 05:29:32;;;;;;;13.45;12.20;;;;;;;19.22;62.43;96006.34;4950901;28;20027;-76
2021/09/28 05:31:57;;;;;;;12.73;11.63;;;;;;;18.85;63.49;95994.75;4954111;28;20023;-77
2021/09/28 05:34:23;;;;;;;12.95;11.73;;;;;;;19.49;61.15;95994.03;4952015;28;20563;-76
2021/09/28 05:36:48;;;;;;;12.38;11.18;;;;;;;19.23;61.88;95994.41;4945679;28;20036;-76
2021/09/28 05:39:14;;;;;;;13.05;11.70;;;;;;;19.30;61.94;95996.56;4924085;29;20586;-80
2021/09/28 05:41:39;;;;;;;11.85;10.90;;;;;;;20.26;59.54;96012.84;4917106;29;20078;-79
2021/09/28 05:44:05;;;;;;;10.70;9.65;;;;;;;19.49;60.96;96011.03;4934446;29;20111;-80
2021/09/28 05:46:31;;;;;;;10.15;9.15;;;;;;;19.44;61.09;96013.16;4933857;28;20036;-80
2021/09/28 05:48:57;;;;;;;10.02;9.10;;;;;;;19.35;62.06;96026.00;4932153;28;20103;-72
2021/09/28 05:51:25;;;;;;;9.73;8.82;;;;;;;20.65;58.17;96024.75;4929691;28;20063;-75
2021/09/28 05:53:51;;;;;;;9.80;8.88;;;;;;;20.38;57.84;96025.53;4931363;28;20178;-76
2021/09/28 05:56:17;;;;;;;9.07;8.27;;;;;;;18.91;62.55;95996.91;4932394;28;20114;-70
2021/09/28 05:58:42;;;;;;;8.48;7.80;;;;;;;19.02;62.21;96032.28;4926097;29;20047;-74
2021/09/28 06:01:08;;;;;;;9.23;7.68;;;;;;;19.04;62.03;96021.97;4926937;28;20047;-73
2021/09/28 06:03:34;;;;;;;8.10;7.40;;;;;;;19.66;60.24;96036.25;4928945;28;20044;-70
2021/09/28 06:06:01;;;;;;;7.70;6.75;;;;;;;19.59;61.20;96003.59;4929222;28;20039;-78
2021/09/28 06:08:26;;;;;;;6.70;6.10;;;;;;;20.05;59.26;96028.47;4931003;28;20027;-76
2021/09/28 06:10:52;;;;;;;6.85;5.80;;;;;;;21.23;56.29;96041.25;4932445;29;20490;-73
2021/09/28 06:13:17;;;;;;;7.03;6.18;;;;;;;20.58;57.28;96040.00;4930306;28;20114;-70
2021/09/28 06:15:43;;;;;;;4.85;4.45;;;;;;;19.82;58.77;96047.13;4931501;28;20043;-70
2021/09/28 06:18:08;;;;;;;6.13;4.22;;;;;;;20.50;57.00;96044.41;4923977;28;20043;-76
2021/09/28 06:20:34;;;;;;;6.05;3.90;;;;;;;20.47;56.30;96048.63;4913204;29;20020;-73
2021/09/28 06:22:59;;;;;;;5.57;3.53;;;;;;;20.51;56.84;96046.00;4939045;29;20040;-69
2021/09/28 06:25:24;;;;;;;3.88;3.47;;;;;;;19.53;59.29;96053.53;4953201;28;20042;-68
2021/09/28 06:27:51;;;;;;;3.42;3.15;;;;;;;20.08;57.61;96044.00;4930170;28;20023;-68
2021/09/28 06:30:16;;;;;;;4.05;2.63;;;;;;;19.80;58.21;96049.34;4929785;28;20054;-69
2021/09/28 06:32:42;;;;;;;3.22;2.00;;;;;;;18.48;59.84;96040.47;4929187;28;20036;-76
2021/09/28 06:35:08;;;;;;;1.95;1.65;;;;;;;19.00;58.66;96050.72;4947695;29;20075;-73
2021/09/28 06:37:34;;;;;;;2.85;1.90;;;;;;;19.68;56.84;96047.47;4933401;28;20086;-72
2021/09/28 06:39:59;;;;;;;2.03;1.90;;;;;;;19.18;57.47;96062.84;4941642;28;20036;-73
2021/09/28 06:42:25;;;;;;;4.57;2.05;;;;;;;20.18;55.44;96062.44;4930236;28;20139;-73
2021/09/28 06:44:50;;;;;;;3.80;1.98;;;;;;;18.54;59.18;96047.22;4930064;28;20515;-77
2021/09/28 06:47:16;;;;;;;2.05;1.33;;;;;;;18.14;60.23;96079.28;4932702;29;20040;-78
2021/09/28 06:49:41;;;;;;;1.30;1.00;;;;;;;18.12;60.75;96074.22;4912031;29;20040;-75
2021/09/28 06:52:07;;;;;;;0.50;0.50;;;;;;;17.32;61.92;96079.59;4926669;28;20556;-76
2021/09/28 06:54:33;;;;;;;1.60;0.40;;;;;;;17.03;62.20;96052.69;4945009;28;20048;-74
2021/09/28 06:56:58;;;;;;;2.15;0.65;;;;;;;17.20;62.29;96087.56;4928625;28;20040;-73
2021/09/28 06:59:24;;;;;;;0.50;0.50;;;;;;;17.44;61.49;96081.59;4928876;28;20396;-78
2021/09/28 07:01:49;;;;;;;0.93;0.80;;;;;;;18.14;59.98;96082.75;4932053;29;20090;-73
2021/09/28 07:04:15;;;;;;;0.63;0.60;;;;;;;17.21;63.94;96094.53;4931310;28;20066;-79
2021/09/28 07:06:40;;;;;;;1.20;0.60;;;;;;;18.45;60.56;96089.63;4929679;28;20052;-72
2021/09/28 07:09:06;;;;;;;1.05;0.70;;;;;;;18.60;59.80;96088.22;4922534;28;20482;-72
2021/09/28 07:11:31;;;;;;;0.73;0.68;;;;;;;18.23;60.25;96065.75;4913065;28;20024;-69
2021/09/28 07:13:56;;;;;;;0.52;0.52;;;;;;;18.61;60.04;96070.91;4931811;29;20036;-71
2021/09/28 07:16:22;;;;;;;0.95;0.95;;;;;;;18.41;61.44;96078.72;4928618;28;20269;-72
2021/09/28 07:18:47;;;;;;;0.80;0.80;;;;;;;18.83;59.48;96099.41;4929591;28;20044;-72
2021/09/28 07:21:13;;;;;;;1.25;1.13;;;;;;;18.71;60.53;96084.00;4929509;28;20397;-72
2021/09/28 07:23:40;;;;;;;2.20;1.20;;;;;;;18.23;61.56;96092.66;4929280;28;20043;-73
2021/09/28 07:26:06;;;;;;;1.25;1.20;;;;;;;18.86;60.25;96098.75;4931763;29;20031;-73
2021/09/28 07:28:31;;;;;;;2.40;1.55;;;;;;;18.40;61.27;96095.22;4929924;28;20039;-72
2021/09/28 07:30:57;;;;;;;2.10;1.90;;;;;;;17.84;62.50;96087.41;4930113;28;20032;-74
2021/09/28 07:33:23;;;;;;;2.05;1.40;;;;;;;19.00;59.75;96087.69;4929623;28;20066;-72
2021/09/28 07:35:48;;;;;;;1.60;1.50;;;;;;;19.21;58.19;96094.56;4930053;28;20549;-73
2021/09/28 07:38:15;;;;;;;1.08;0.90;;;;;;;18.66;59.79;96098.44;4930755;29;20038;-73
2021/09/28 07:40:44;;;;;;;0.70;0.70;;;;;;;18.03;60.94;96105.00;4928227;28;20075;-73
2021/09/28 07:43:10;;;;;;;1.23;1.05;;;;;;;18.92;59.33;96098.22;4919917;28;20040;-73
2021/09/28 07:45:36;;;;;;;1.20;0.90;;;;;;;18.47;59.32;96086.59;4928764;29;20036;-73
2021/09/28 07:48:02;;;;;;;1.27;0.95;;;;;;;19.21;57.92;96112.66;4930044;28;20035;-72
2021/09/28 07:50:28;;;;;;;4.00;0.98;;;;;;;18.62;59.01;96104.81;4929743;28;20020;-73
2021/09/28 07:52:53;;;;;;;1.25;1.10;;;;;;;18.09;60.44;96092.94;4933945;29;20144;-72
2021/09/28 07:55:18;;;;;;;2.90;1.10;;;;;;;17.89;61.17;96099.88;4932801;28;20123;-73
2021/09/28 07:57:44;;;;;;;1.55;0.90;;;;;;;17.90;61.34;96107.63;4933018;28;20039;-73
2021/09/28 08:00:10;;;;;;;1.52;0.88;;;;;;;18.09;60.04;96115.25;4932716;28;20075;-73
2021/09/28 08:02:39;;;;;;;0.98;0.85;;;;;;;17.83;60.51;96111.94;4947741;28;20039;-75
2021/09/28 08:05:07;;;;;;;2.15;1.00;;;;;;;17.74;61.42;96119.28;4935265;29;20761;-74
2021/09/28 08:07:32;;;;;;;2.40;1.15;;;;;;;17.88;60.78;96117.16;4932866;28;20035;-75
2021/09/28 08:09:58;;;;;;;1.67;1.10;;;;;;;18.06;59.78;96110.50;4932558;28;20423;-74
2021/09/28 08:12:23;;;;;;;1.23;0.90;;;;;;;18.44;58.67;96113.06;4932923;28;20135;-74
2021/09/28 08:14:49;;;;;;;1.25;0.85;;;;;;;19.23;56.21;96108.47;4932702;28;20118;-74
2021/09/28 08:17:14;;;;;;;1.30;0.88;;;;;;;19.29;54.79;96095.56;4933401;29;20032;-74
2021/09/28 08:19:40;;;;;;;1.95;1.23;;;;;;;18.95;56.53;96105.63;4932668;28;20122;-74
2021/09/28 08:22:08;;;;;;;1.10;1.00;;;;;;;19.32;55.54;96110.31;4932335;28;20091;-73
2021/09/28 08:24:40;;;;;;;1.13;0.93;;;;;;;20.23;52.56;96100.00;4932057;28;20075;-74
2021/09/28 08:29:49;;;;;;;1.67;1.52;;;;;;;18.29;56.74;96120.97;4932499;28;20135;-74
2021/09/28 08:32:15;;;;;;;1.83;1.25;;;;;;;18.31;56.81;96102.56;4934993;29;20071;-75
2021/09/28 08:34:40;;;;;;;3.40;1.33;;;;;;;17.79;58.05;96106.44;4932655;28;20540;-76
2021/09/28 08:37:05;;;;;;;2.63;1.50;;;;;;;18.82;55.25;96106.72;4930797;28;20044;-74
2021/09/28 08:39:31;;;;;;;1.73;1.52;;;;;;;20.74;50.70;96087.56;4932018;28;20063;-74
2021/09/28 08:41:57;;;;;;;1.60;1.50;;;;;;;21.10;48.98;96102.00;4932659;28;20647;-75
2021/09/28 08:44:22;;;;;;;2.10;1.73;;;;;;;19.99;51.46;96106.25;4932289;28;20484;-75
2021/09/28 08:46:49;;;;;;;1.75;1.40;;;;;;;20.72;50.22;96100.63;4934130;29;20019;-74
2021/09/28 08:49:15;;;;;;;1.75;1.35;;;;;;;20.70;50.26;96104.81;4931857;28;20040;-74
2021/09/28 08:51:42;;;;;;;2.65;1.88;;;;;;;19.17;54.11;96103.66;4932294;28;20054;-74
2021/09/28 08:54:08;;;;;;;1.95;1.73;;;;;;;20.06;52.33;96092.94;4931055;28;20044;-73
2021/09/28 08:56:33;;;;;;;3.50;1.50;;;;;;;19.50;53.74;96095.47;4931849;28;20485;-75
2021/09/28 08:59:02;;;;;;;2.10;1.90;;;;;;;20.03;52.83;96093.63;4933828;29;20027;-74
2021/09/28 09:01:29;;;;;;;3.72;1.60;;;;;;;20.96;50.21;96094.31;4932260;28;20036;-74
2021/09/28 09:03:54;;;;;;;1.50;1.38;;;;;;;20.97;50.16;96085.06;4930274;28;20047;-74
2021/09/28 09:06:33;;;;;;;2.20;1.27;;;;;;;21.65;48.55;96094.88;4932098;28;20047;-72
2021/09/28 09:09:01;;;;;;;1.20;1.10;;;;;;;21.32;49.02;96099.84;4931025;28;20052;-72
2021/09/28 09:11:34;;;;;;;0.88;0.80;;;;;;;20.76;49.47;96096.09;4931432;28;20030;-72
2021/09/28 09:14:11;;;;;;;0.80;0.80;;;;;;;21.82;47.75;96068.53;4932303;29;20059;-72
2021/09/28 09:16:37;;;;;;;1.95;0.93;;;;;;;22.48;46.36;96075.75;4931403;28;20036;-74
2021/09/28 09:19:12;;;;;;;0.95;0.88;;;;;;;22.49;46.21;96091.66;4931359;28;20047;-74
2021/09/28 09:21:46;;;;;;;2.80;1.10;;;;;;;19.94;52.04;96088.34;4931770;28;20043;-77
2021/09/28 09:24:12;;;;;;;1.38;1.25;;;;;;;20.02;52.10;96065.06;4931078;28;20055;-74
2021/09/28 09:26:44;;;;;;;5.60;1.17;;;;;;;19.71;53.22;96076.50;4923268;28;20037;-74
2021/09/28 09:29:12;;;;;;;1.38;1.35;;;;;;;19.12;55.54;96080.38;4944413;29;20028;-75
2021/09/28 09:31:39;;;;;;;1.40;1.30;;;;;;;20.19;51.98;96067.47;4930983;28;20040;-72
2021/09/28 09:34:19;;;;;;;2.78;1.42;;;;;;;19.89;52.80;96074.31;4931305;28;20035;-74
2021/09/28 09:37:06;;;;;;;1.70;1.42;;;;;;;19.78;53.22;96084.78;4931191;28;20071;-72
2021/09/28 09:39:47;;;;;;;1.70;1.60;;;;;;;20.64;50.74;96074.53;4930169;28;20039;-72
2021/09/28 09:42:13;;;;;;;2.42;1.58;;;;;;;20.86;50.09;96073.19;4931439;28;20118;-72
2021/09/28 09:44:41;;;;;;;1.75;1.65;;;;;;;20.67;50.65;96071.13;4945622;28;20368;-73
2021/09/28 09:47:23;;;;;;;1.20;1.10;;;;;;;21.74;48.29;96060.22;4932760;29;20071;-73
2021/09/28 09:49:48;;;;;;;1.85;1.15;;;;;;;21.96;47.43;96056.09;4930604;29;20140;-73
2021/09/28 09:52:14;;;;;;;2.33;1.48;;;;;;;23.65;45.17;96051.81;4931076;28;20067;-73
2021/09/28 09:54:42;;;;;;;2.00;1.35;;;;;;;24.09;42.84;96052.03;4929942;28;20035;-73
2021/09/28 09:57:11;;;;;;;2.10;1.20;;;;;;;22.25;45.76;96056.69;4930335;28;20498;-72
2021/09/28 09:59:37;;;;;;;1.17;1.10;;;;;;;23.17;43.98;96046.00;4928837;28;20467;-72
2021/09/28 10:02:04;;;;;;;1.92;1.17;;;;;;;23.38;43.26;96057.19;4931239;29;20051;-72
2021/09/28 10:04:30;;;;;;;1.60;1.40;;;;;;;23.17;44.50;96046.00;4944944;28;20039;-72
2021/09/28 10:06:56;;;;;;;3.22;1.60;;;;;;;23.30;43.66;96048.16;4930562;28;20036;-72
2021/09/28 10:09:31;;;;;;;2.33;1.60;;;;;;;21.85;46.62;96038.81;4929590;28;20036;-73
2021/09/28 10:12:00;;;;;;;1.90;1.80;;;;;;;22.77;45.15;96049.94;4929308;28;20066;-73
2021/09/28 10:14:31;;;;;;;2.20;1.70;;;;;;;23.43;44.01;96056.09;4928461;28;20123;-72
2021/09/28 10:16:59;;;;;;;2.65;1.48;;;;;;;23.76;42.57;96031.03;4932573;29;20490;-72
2021/09/28 10:19:27;;;;;;;3.90;1.83;;;;;;;21.88;46.33;96053.56;4930395;28;20047;-72
2021/09/28 10:21:57;;;;;;;2.08;1.40;;;;;;;21.04;48.82;96052.00;4930732;28;20119;-72
2021/09/28 10:24:34;;;;;;;1.65;1.52;;;;;;;21.43;48.37;96052.19;4929641;28;20044;-73
2021/09/28 10:26:59;;;;;;;3.08;1.90;;;;;;;20.82;49.73;96055.28;4930276;28;20036;-72
2021/09/28 10:29:54;;;;;;;2.63;1.80;;;;;;;21.87;47.58;96050.09;4929865;28;20054;-72
2021/09/28 10:32:22;;;;;;;1.90;1.50;;;;;;;22.27;46.73;96041.66;4928893;28;20402;-72
2021/09/28 10:35:09;;;;;;;2.25;2.00;;;;;;;22.99;45.50;96041.06;4931949;29;20028;-71
2021/09/28 10:37:46;;;;;;;2.38;2.17;;;;;;;23.07;44.73;96029.16;4944848;28;20055;-72
2021/09/28 10:40:15;;;;;;;2.38;1.55;;;;;;;21.13;48.18;96033.66;4927275;28;20044;-71
2021/09/28 10:42:53;;;;;;;2.25;1.75;;;;;;;21.54;48.42;96026.91;4944905;28;20470;-72
2021/09/28 10:45:29;;;;;;;2.60;2.08;;;;;;;21.16;48.93;96029.47;4945319;28;20047;-72
2021/09/28 10:47:56;;;;;;;1.52;1.42;;;;;;;21.80;47.14;96017.41;4930388;28;20115;-72
2021/09/28 10:50:41;;;;;;;3.83;1.30;;;;;;;22.44;46.54;96034.22;4929898;28;20535;-72
2021/09/28 10:53:19;;;;;;;1.55;1.45;;;;;;;22.13;46.58;96025.09;4931242;29;20558;-73
2021/09/28 10:55:58;;;;;;;1.77;1.67;;;;;;;22.19;46.10;96022.91;4930554;29;20413;-72
2021/09/28 10:58:24;;;;;;;1.92;1.33;;;;;;;22.43;46.14;96024.53;4944654;28;20052;-73
2021/09/28 11:00:52;;;;;;;3.72;3.42;;;;;;;22.77;45.23;96014.69;4928793;28;20032;-73
2021/09/28 11:03:43;;;;;;;4.05;3.17;;;;;;;22.37;46.38;96015.91;4944653;28;20046;-72
2021/09/28 11:06:10;;;;;;;3.80;3.50;;;;;;;22.09;46.51;96013.38;4930501;28;20032;-73
2021/09/28 11:08:36;;;;;;;8.75;4.57;;;;;;;20.02;51.89;96012.97;4929622;28;20027;-72
2021/09/28 11:11:08;;;;;;;3.70;3.47;;;;;;;20.39;51.37;96002.78;4930404;29;20027;-71
2021/09/28 11:13:38;;;;;;;;;;;;;;;20.88;50.73;96006.03;4897065;28;20129;-72
2021/09/28 11:16:08;;;;;;;3.75;3.45;;;;;;;22.14;47.64;96002.28;4924946;29;20318;-72
2021/09/28 11:18:38;;;;;;;4.22;3.67;;;;;;;22.44;46.18;96009.81;4920092;28;20127;-73
2021/09/28 11:21:14;;;;;;;3.50;3.20;;;;;;;20.76;50.23;95997.97;4911094;29;20087;-72
2021/09/28 11:23:41;;;;;;;3.70;3.30;;;;;;;21.45;48.88;95990.38;4913499;28;20040;-74
2021/09/28 11:26:07;;;;;;;3.70;3.40;;;;;;;21.97;47.18;95981.81;4918075;29;20112;-74
2021/09/28 11:28:33;;;;;;;4.75;3.35;;;;;;;22.37;47.21;95982.56;4932889;29;20119;-74